Williamsburg, Iowa
Current Conditions -  °F | °C
As of 10:52 PM on Sunday 19 Oct 2014 (Local Time) from KCID Reporting Station
Clear Clear  
Wind Chill: 53°   Ceiling: Unl
Heat Index: 53°   Visibility: 10mi
Dew Point: 45°   Wind: 10mph
Humidity: 74%   Direction: 220°SW
Pressure: 29.88"   Gusts: NA
Location:  41.66°N, 92.01°W
Report Text: KCID 200352Z 22009KT 10SM CLR 12/07 A2988 RMK AO2 SLP120 T01170072
Loading
Personal Weather Stations






























Interactive Weather Map New forecast layout! Learn more

10-Day Weather Forecast

Advertisements
Track Severe Weather on mobile